Time;durP1;ratioP1;P1;durP2;ratioP2;P2;SDS_P1;SDS_P2;PMS_P1;PMS_P2;Temp;Humidity;BMP_temperature;BMP_pressure;BME280_temperature;BME280_humidity;BME280_pressure;Samples;Min_cycle;Max_cycle;Signal;HPM_P1;HPM_P2
2021/01/23 00:01:38;;;;;;;13.07;7.97;;;1.80;99.90;;;;;;5051793;28;20032;-68
2021/01/23 00:04:03;;;;;;;19.05;8.82;;;1.80;99.90;;;;;;5050239;28;20074;-68
2021/01/23 00:06:29;;;;;;;16.58;8.13;;;1.80;99.90;;;;;;5051039;28;20043;-68
2021/01/23 00:08:54;;;;;;;15.68;8.45;;;1.70;99.90;;;;;;5050920;28;20029;-68
2021/01/23 00:11:20;;;;;;;17.17;8.90;;;1.70;99.90;;;;;;5050850;28;20024;-68
2021/01/23 00:13:45;;;;;;;16.25;7.93;;;1.70;99.90;;;;;;5051225;28;20330;-68
2021/01/23 00:16:11;;;;;;;21.42;8.43;;;1.70;99.90;;;;;;5051223;28;20029;-68
2021/01/23 00:18:36;;;;;;;16.77;8.23;;;1.70;99.90;;;;;;5050626;28;20069;-68
2021/01/23 00:21:02;;;;;;;17.60;7.72;;;1.70;99.90;;;;;;5045075;28;20290;-68
2021/01/23 00:23:28;;;;;;;14.10;7.93;;;1.70;99.90;;;;;;5026014;28;20026;-68
2021/01/23 00:25:53;;;;;;;20.17;9.27;;;1.70;99.90;;;;;;5042555;28;20025;-68
2021/01/23 00:28:19;;;;;;;13.63;8.00;;;1.70;99.90;;;;;;5051131;28;20048;-68
2021/01/23 00:30:44;;;;;;;25.70;9.63;;;1.60;99.90;;;;;;5036148;28;20052;-68
2021/01/23 00:33:10;;;;;;;16.77;7.47;;;1.70;99.90;;;;;;5051233;28;20029;-68
2021/01/23 00:35:36;;;;;;;17.00;8.00;;;1.70;99.90;;;;;;5049744;28;20101;-68
2021/01/23 00:38:01;;;;;;;15.38;8.02;;;1.70;99.90;;;;;;5043675;28;20032;-68
2021/01/23 00:40:27;;;;;;;17.48;7.97;;;1.70;99.90;;;;;;5054929;28;20041;-70
2021/01/23 00:42:52;;;;;;;14.80;8.07;;;1.70;99.90;;;;;;5054316;28;20045;-69
2021/01/23 00:45:18;;;;;;;13.98;8.40;;;1.70;99.90;;;;;;5054222;28;20021;-68
2021/01/23 00:47:44;;;;;;;22.10;8.45;;;1.70;99.90;;;;;;5054303;28;20025;-68
2021/01/23 00:50:10;;;;;;;14.27;7.45;;;1.70;99.90;;;;;;5054769;28;20021;-69
2021/01/23 00:52:36;;;;;;;13.90;8.75;;;1.70;99.90;;;;;;5053784;28;20428;-68
2021/01/23 00:55:02;;;;;;;9.90;7.82;;;1.70;99.90;;;;;;5054249;28;20074;-68
2021/01/23 00:57:28;;;;;;;17.10;8.75;;;1.70;99.90;;;;;;5054247;28;20032;-68
2021/01/23 00:59:54;;;;;;;14.32;7.75;;;1.70;99.90;;;;;;5053319;28;20029;-68
2021/01/23 01:02:19;;;;;;;21.15;8.30;;;1.70;99.90;;;;;;5054497;28;20028;-68
2021/01/23 01:04:45;;;;;;;13.45;8.35;;;1.70;99.90;;;;;;5053754;28;20028;-67
2021/01/23 01:07:10;;;;;;;18.73;9.27;;;1.60;99.90;;;;;;5053402;28;20102;-70
2021/01/23 01:09:36;;;;;;;17.40;8.57;;;1.70;99.90;;;;;;5054269;28;20104;-68
2021/01/23 01:12:01;;;;;;;12.80;8.02;;;1.70;99.90;;;;;;5054446;28;20104;-68
2021/01/23 01:14:27;;;;;;;20.60;8.10;;;1.70;99.90;;;;;;5053567;28;20060;-69
2021/01/23 01:16:52;;;;;;;18.35;8.38;;;1.70;99.90;;;;;;5054027;28;20031;-69
2021/01/23 01:19:18;;;;;;;21.13;8.52;;;1.80;99.90;;;;;;5054103;28;20021;-69
2021/01/23 01:21:44;;;;;;;15.02;8.70;;;1.80;99.90;;;;;;5052944;28;20135;-69
2021/01/23 01:24:09;;;;;;;18.65;9.10;;;1.80;99.90;;;;;;5054049;28;20017;-69
2021/01/23 01:26:35;;;;;;;15.82;8.77;;;2.00;99.90;;;;;;5053887;28;20082;-69
2021/01/23 01:29:00;;;;;;;12.48;8.63;;;2.00;99.90;;;;;;5047532;28;20052;-69
2021/01/23 01:31:26;;;;;;;21.55;9.25;;;2.00;99.90;;;;;;5045528;28;20066;-69
2021/01/23 01:33:51;;;;;;;17.05;8.05;;;2.10;99.90;;;;;;5052920;28;20013;-69
2021/01/23 01:36:17;;;;;;;14.80;10.02;;;2.00;99.90;;;;;;5053869;28;20484;-69
2021/01/23 01:38:43;;;;;;;20.83;8.73;;;2.10;99.90;;;;;;5053468;28;20108;-69
2021/01/23 01:41:08;;;;;;;16.58;8.43;;;2.10;99.90;;;;;;5053048;28;20396;-69
2021/01/23 01:43:34;;;;;;;24.17;9.40;;;2.20;99.90;;;;;;5053666;28;20404;-69
2021/01/23 01:46:00;;;;;;;15.48;9.07;;;2.20;99.90;;;;;;5052746;28;20493;-69
2021/01/23 01:48:26;;;;;;;14.13;8.88;;;2.30;99.90;;;;;;5052744;28;20049;-69
2021/01/23 01:50:56;;;;;;;14.00;9.20;;;2.40;99.90;;;;;;5053239;28;20048;-70
2021/01/23 01:53:22;;;;;;;16.77;8.38;;;2.40;99.90;;;;;;5053620;28;20112;-69
2021/01/23 01:55:50;;;;;;;18.02;8.77;;;2.50;99.90;;;;;;5052374;28;20111;-70
2021/01/23 01:58:18;;;;;;;19.90;10.88;;;2.60;99.90;;;;;;5053746;28;20100;-69
2021/01/23 02:00:43;;;;;;;19.88;10.00;;;2.70;99.90;;;;;;5053161;28;20036;-69
2021/01/23 02:03:17;;;;;;;19.75;9.18;;;2.80;99.90;;;;;;5052931;28;20082;-69
2021/01/23 02:06:06;;;;;;;12.95;8.88;;;2.80;99.90;;;;;;5053257;28;20129;-69
2021/01/23 02:08:40;;;;;;;17.45;9.50;;;2.90;99.90;;;;;;5053322;28;20028;-70
2021/01/23 02:11:39;;;;;;;15.98;9.48;;;2.90;99.90;;;;;;5052568;28;20056;-69
2021/01/23 02:14:18;;;;;;;20.50;8.98;;;3.00;99.90;;;;;;5053110;28;20017;-69
2021/01/23 02:16:48;;;;;;;15.45;9.73;;;3.00;99.90;;;;;;5052450;28;20033;-69
2021/01/23 02:19:50;;;;;;;16.38;9.88;;;3.10;99.90;;;;;;5053348;28;20102;-69
2021/01/23 02:22:43;;;;;;;19.45;10.25;;;3.10;99.90;;;;;;5033601;28;20036;-69
2021/01/23 02:25:11;;;;;;;20.00;10.68;;;3.10;99.90;;;;;;5052210;28;20368;-70
2021/01/23 02:27:45;;;;;;;19.95;11.00;;;3.00;99.90;;;;;;5053244;28;20044;-69
2021/01/23 02:30:14;;;;;;;21.05;10.52;;;2.90;99.90;;;;;;5038268;28;20029;-68
2021/01/23 02:32:41;;;;;;;25.48;11.25;;;3.00;99.90;;;;;;5046467;28;20037;-69
2021/01/23 02:35:10;;;;;;;17.02;10.90;;;3.00;99.90;;;;;;5047073;28;20136;-69
2021/01/23 02:37:37;;;;;;;22.48;11.20;;;3.00;99.90;;;;;;5052725;28;20039;-69
2021/01/23 02:40:04;;;;;;;20.73;11.25;;;3.00;99.90;;;;;;5052557;28;20465;-69
2021/01/23 02:42:30;;;;;;;18.65;11.55;;;3.00;99.90;;;;;;5052654;28;20032;-69
2021/01/23 02:44:55;;;;;;;18.70;10.32;;;3.00;99.90;;;;;;5051326;28;20025;-67
2021/01/23 02:47:21;;;;;;;17.02;11.05;;;3.00;99.90;;;;;;5052377;28;20166;-67
2021/01/23 02:49:47;;;;;;;18.17;10.32;;;3.00;99.90;;;;;;5052028;28;20124;-67
2021/01/23 02:52:30;;;;;;;24.20;11.95;;;3.10;99.90;;;;;;5051928;28;20426;-68
2021/01/23 02:55:19;;;;;;;17.77;10.10;;;3.10;99.90;;;;;;5052285;28;20025;-68
2021/01/23 02:57:48;;;;;;;18.20;10.35;;;3.20;99.90;;;;;;5051739;28;20527;-68
2021/01/23 03:00:15;;;;;;;20.33;10.50;;;3.20;99.90;;;;;;5051384;28;20036;-68
2021/01/23 03:02:53;;;;;;;18.70;10.43;;;3.20;99.90;;;;;;5052067;28;20029;-68
2021/01/23 03:05:22;;;;;;;16.25;11.07;;;3.10;99.90;;;;;;5051683;28;20071;-68
2021/01/23 03:07:54;;;;;;;23.13;11.35;;;3.10;99.90;;;;;;5051844;28;20029;-68
2021/01/23 03:10:36;;;;;;;16.60;10.52;;;3.20;99.90;;;;;;5052108;28;20022;-67
2021/01/23 03:13:03;;;;;;;14.27;10.88;;;3.10;99.90;;;;;;5051191;28;20021;-69
2021/01/23 03:15:28;;;;;;;17.25;10.65;;;3.10;99.90;;;;;;5051961;28;20029;-68
2021/01/23 03:17:54;;;;;;;16.25;10.32;;;3.10;99.90;;;;;;5051692;28;20027;-68
2021/01/23 03:20:20;;;;;;;17.33;11.40;;;3.10;99.90;;;;;;5051038;28;20124;-68
2021/01/23 03:22:45;;;;;;;20.10;11.10;;;3.00;99.90;;;;;;5051668;28;20086;-69
2021/01/23 03:25:11;;;;;;;18.92;10.45;;;3.10;99.90;;;;;;5051605;28;20029;-69
2021/01/23 03:27:37;;;;;;;21.13;10.70;;;3.10;99.90;;;;;;5051242;28;20433;-69
2021/01/23 03:30:05;;;;;;;18.60;10.75;;;3.00;99.90;;;;;;5037683;28;20026;-69
2021/01/23 03:32:30;;;;;;;23.55;12.07;;;3.00;99.90;;;;;;5037969;28;20021;-69
2021/01/23 03:34:56;;;;;;;19.10;10.98;;;2.90;99.90;;;;;;5050478;28;20028;-69
2021/01/23 03:37:24;;;;;;;23.75;11.10;;;2.90;99.90;;;;;;5051544;28;20024;-69
2021/01/23 03:39:50;;;;;;;21.00;11.07;;;2.80;99.90;;;;;;5031136;28;20533;-68
2021/01/23 03:42:15;;;;;;;18.17;11.30;;;2.90;99.90;;;;;;5032734;28;20727;-69
2021/01/23 03:44:44;;;;;;;16.08;10.27;;;2.80;99.90;;;;;;5037345;28;20032;-70
2021/01/23 03:47:10;;;;;;;17.75;11.55;;;2.80;99.90;;;;;;5047662;28;20477;-69
2021/01/23 03:49:36;;;;;;;17.17;10.93;;;2.80;99.90;;;;;;5040701;28;20135;-69
2021/01/23 03:52:03;;;;;;;14.98;10.35;;;2.80;99.90;;;;;;5051081;28;20025;-69
2021/01/23 03:54:28;;;;;;;17.98;10.75;;;2.80;99.90;;;;;;5050719;28;20112;-69
2021/01/23 03:56:54;;;;;;;19.77;11.95;;;2.80;99.90;;;;;;5037314;28;20104;-69
2021/01/23 03:59:19;;;;;;;17.45;10.82;;;2.80;99.90;;;;;;5050781;28;20052;-69
2021/01/23 04:01:45;;;;;;;17.63;11.25;;;2.70;99.90;;;;;;5050349;28;20039;-69
2021/01/23 04:04:10;;;;;;;24.02;10.80;;;2.70;99.90;;;;;;5051207;28;20017;-69
2021/01/23 04:06:36;;;;;;;14.48;9.93;;;2.80;99.90;;;;;;5051241;28;20036;-70
2021/01/23 04:09:02;;;;;;;19.77;10.48;;;2.80;99.90;;;;;;5050109;28;20167;-69
2021/01/23 04:11:27;;;;;;;19.77;10.75;;;2.80;99.90;;;;;;5055038;28;20017;-69
2021/01/23 04:13:53;;;;;;;19.40;10.60;;;2.80;99.90;;;;;;5042144;28;20075;-69
2021/01/23 04:16:18;;;;;;;22.55;11.15;;;2.80;99.90;;;;;;5053674;28;20013;-69
2021/01/23 04:18:44;;;;;;;17.30;10.43;;;2.80;99.90;;;;;;5054955;28;20025;-69
2021/01/23 04:21:10;;;;;;;14.68;10.25;;;2.80;99.90;;;;;;5040824;28;20032;-69
2021/01/23 04:23:36;;;;;;;12.77;9.65;;;2.70;99.90;;;;;;5054493;28;20021;-69
2021/01/23 04:26:02;;;;;;;16.58;9.98;;;2.70;99.90;;;;;;5054914;28;20045;-70
2021/01/23 04:28:27;;;;;;;17.98;10.85;;;2.70;99.90;;;;;;5055023;28;20017;-69
2021/01/23 04:30:53;;;;;;;17.25;9.35;;;2.80;99.90;;;;;;5054213;28;20029;-69
2021/01/23 04:33:18;;;;;;;14.43;9.35;;;2.70;99.90;;;;;;5055007;28;20025;-69
2021/01/23 04:35:44;;;;;;;18.80;10.10;;;2.70;99.90;;;;;;5054485;28;20086;-68
2021/01/23 04:38:10;;;;;;;15.35;10.35;;;2.70;99.90;;;;;;5053890;28;20044;-69
2021/01/23 04:40:36;;;;;;;14.80;9.85;;;2.70;99.90;;;;;;5054656;28;20086;-69
2021/01/23 04:43:02;;;;;;;14.43;9.30;;;2.70;99.90;;;;;;5054463;28;20052;-71
2021/01/23 04:45:27;;;;;;;14.73;8.50;;;2.70;99.90;;;;;;5054067;28;20025;-68
2021/01/23 04:47:54;;;;;;;12.63;9.27;;;2.80;99.90;;;;;;5042385;28;20163;-69
2021/01/23 04:50:20;;;;;;;15.38;8.98;;;2.90;99.90;;;;;;5052712;28;20047;-68
2021/01/23 04:52:46;;;;;;;16.38;9.48;;;3.00;99.90;;;;;;5053593;28;20549;-70
2021/01/23 04:55:11;;;;;;;12.95;8.35;;;3.10;99.90;;;;;;5054621;28;20358;-69
2021/01/23 04:57:38;;;;;;;8.63;7.47;;;3.10;99.90;;;;;;5054639;28;20112;-69
2021/01/23 05:00:07;;;;;;;16.02;8.60;;;3.20;99.90;;;;;;5053527;28;20036;-68
2021/01/23 05:02:33;;;;;;;16.52;7.90;;;3.20;99.90;;;;;;5054412;28;20021;-68
2021/01/23 05:05:03;;;;;;;13.63;7.80;;;3.30;99.90;;;;;;5053470;28;20028;-68
2021/01/23 05:07:37;;;;;;;10.82;7.55;;;3.30;99.90;;;;;;5054197;28;20025;-69
2021/01/23 05:10:23;;;;;;;10.00;8.07;;;3.40;99.90;;;;;;5054271;28;20037;-69
2021/01/23 05:12:53;;;;;;;13.70;7.72;;;3.40;99.90;;;;;;5027803;28;20029;-69
2021/01/23 05:15:22;;;;;;;15.13;6.97;;;3.50;99.90;;;;;;5054343;28;20048;-69
2021/01/23 05:18:11;;;;;;;9.57;6.93;;;3.50;99.90;;;;;;5054035;28;20021;-69
2021/01/23 05:20:45;;;;;;;10.05;7.13;;;3.50;99.90;;;;;;5047735;28;20057;-69
2021/01/23 05:23:22;;;;;;;11.55;6.72;;;3.50;99.90;;;;;;5053490;28;20017;-69
2021/01/23 05:25:55;;;;;;;10.25;7.15;;;3.50;99.90;;;;;;5053481;28;20033;-69
2021/01/23 05:28:35;;;;;;;12.02;6.47;;;3.50;99.90;;;;;;5053902;28;20385;-69
2021/01/23 05:31:05;;;;;;;10.52;6.25;;;3.60;99.90;;;;;;5053554;28;20029;-68
2021/01/23 05:33:32;;;;;;;11.30;7.07;;;3.60;99.90;;;;;;5053134;28;20063;-68
2021/01/23 05:36:06;;;;;;;10.52;6.63;;;3.60;99.90;;;;;;5053496;28;20044;-68
2021/01/23 05:38:39;;;;;;;10.15;6.13;;;3.60;99.90;;;;;;5053712;28;20078;-68
2021/01/23 05:41:04;;;;;;;8.40;6.50;;;3.70;99.90;;;;;;5052597;28;20029;-69
2021/01/23 05:43:35;;;;;;;9.02;6.50;;;3.60;99.90;;;;;;5053897;28;20041;-69
2021/01/23 05:46:18;;;;;;;7.85;6.00;;;3.70;99.90;;;;;;5053708;28;20788;-68
2021/01/23 05:48:48;;;;;;;9.85;6.97;;;3.70;99.90;;;;;;5038650;28;20033;-68
2021/01/23 05:51:16;;;;;;;11.60;6.10;;;3.60;99.90;;;;;;5053479;28;20032;-68
2021/01/23 05:53:43;;;;;;;8.18;5.35;;;3.60;99.90;;;;;;5053261;28;20112;-68
2021/01/23 05:56:09;;;;;;;9.07;5.63;;;3.70;99.90;;;;;;5052877;28;20040;-68
2021/01/23 05:58:38;;;;;;;9.65;5.55;;;3.70;99.90;;;;;;5053241;28;20021;-68
2021/01/23 06:01:08;;;;;;;7.85;5.20;;;3.70;99.90;;;;;;5052180;28;20584;-68
2021/01/23 06:03:43;;;;;;;9.07;5.82;;;3.70;99.90;;;;;;5053167;28;20056;-68
2021/01/23 06:06:09;;;;;;;8.25;6.47;;;3.70;99.90;;;;;;5053070;28;20450;-69
2021/01/23 06:08:45;;;;;;;7.57;6.22;;;3.70;99.90;;;;;;5050159;28;20083;-69
2021/01/23 06:11:20;;;;;;;8.00;6.55;;;3.70;99.90;;;;;;5046210;28;20029;-69
2021/01/23 06:13:48;;;;;;;9.05;5.63;;;3.70;99.90;;;;;;5037636;28;20024;-69
2021/01/23 06:16:32;;;;;;;16.95;6.03;;;3.70;99.90;;;;;;5049700;28;20029;-69
2021/01/23 06:18:58;;;;;;;14.13;6.30;;;3.70;99.90;;;;;;5044694;28;20030;-69
2021/01/23 06:21:48;;;;;;;9.52;6.22;;;3.70;99.90;;;;;;5045512;28;20029;-69
2021/01/23 06:24:17;;;;;;;9.68;6.20;;;3.80;99.90;;;;;;5047254;28;20022;-69
2021/01/23 06:26:55;;;;;;;12.73;6.47;;;3.80;99.90;;;;;;5050181;28;20401;-69
2021/01/23 06:29:35;;;;;;;7.80;5.90;;;3.70;99.90;;;;;;5046133;28;20036;-68
2021/01/23 06:32:16;;;;;;;8.88;6.15;;;3.70;99.90;;;;;;5049537;28;20502;-68
2021/01/23 06:34:50;;;;;;;10.88;5.68;;;3.70;99.90;;;;;;5047784;28;20033;-68
2021/01/23 06:37:20;;;;;;;8.00;5.82;;;3.80;99.90;;;;;;5049567;28;20078;-68
2021/01/23 06:40:01;;;;;;;14.60;5.65;;;3.70;99.90;;;;;;5042931;28;20521;-69
2021/01/23 06:42:26;;;;;;;9.65;5.70;;;3.70;99.90;;;;;;5051064;28;20033;-69
2021/01/23 06:44:52;;;;;;;8.52;5.10;;;3.70;99.90;;;;;;5050036;28;20108;-69
2021/01/23 06:47:18;;;;;;;9.95;6.25;;;3.80;99.90;;;;;;5047532;28;20092;-68
2021/01/23 06:49:44;;;;;;;11.20;5.18;;;3.80;99.90;;;;;;5050514;28;20029;-70
2021/01/23 06:52:10;;;;;;;9.15;5.00;;;3.80;99.90;;;;;;5042280;28;20027;-68
2021/01/23 06:54:37;;;;;;;13.63;6.20;;;3.80;99.90;;;;;;5050799;28;20021;-68
2021/01/23 06:57:04;;;;;;;11.43;6.07;;;3.80;99.90;;;;;;5049716;28;20083;-68
2021/01/23 06:59:35;;;;;;;8.10;5.80;;;3.80;99.90;;;;;;5045031;28;20508;-68
2021/01/23 07:02:00;;;;;;;9.00;5.85;;;3.80;99.90;;;;;;5048726;28;20352;-68
2021/01/23 07:04:28;;;;;;;16.92;6.18;;;3.80;99.90;;;;;;5048082;28;20025;-68
2021/01/23 07:06:55;;;;;;;11.73;6.03;;;3.80;99.90;;;;;;5048550;28;20125;-68
2021/01/23 07:09:41;;;;;;;11.65;5.60;;;3.80;99.90;;;;;;5048819;28;20104;-68
2021/01/23 07:12:06;;;;;;;9.43;5.68;;;3.80;99.90;;;;;;5048266;28;20521;-68
2021/01/23 07:14:32;;;;;;;8.35;5.75;;;3.70;99.90;;;;;;5050610;28;20107;-68
2021/01/23 07:16:57;;;;;;;12.43;6.10;;;3.70;99.90;;;;;;5050622;28;20464;-68
2021/01/23 07:19:26;;;;;;;10.60;6.10;;;3.70;99.90;;;;;;5047505;28;20021;-69
2021/01/23 07:21:54;;;;;;;8.57;5.88;;;3.70;99.90;;;;;;5048703;28;20033;-68
2021/01/23 07:24:20;;;;;;;6.43;5.28;;;3.60;99.90;;;;;;5046504;28;20097;-68
2021/01/23 07:26:46;;;;;;;10.18;5.63;;;3.60;99.90;;;;;;5047716;28;20032;-68
2021/01/23 07:29:12;;;;;;;12.35;5.07;;;3.50;99.90;;;;;;5048211;28;20036;-68
2021/01/23 07:31:37;;;;;;;8.98;5.38;;;3.40;99.90;;;;;;5049660;28;20127;-68
2021/01/23 07:34:13;;;;;;;11.05;5.35;;;3.40;99.90;;;;;;5048842;28;20013;-68
2021/01/23 07:36:43;;;;;;;4.47;4.07;;;3.40;99.90;;;;;;5042849;28;20390;-68
2021/01/23 07:39:14;;;;;;;8.52;4.82;;;3.30;99.90;;;;;;5045201;28;20017;-68
2021/01/23 07:41:52;;;;;;;10.15;4.53;;;3.40;99.90;;;;;;5044960;28;20123;-67
2021/01/23 07:44:19;;;;;;;10.55;4.88;;;3.30;99.90;;;;;;5047329;28;20070;-67
2021/01/23 07:46:46;;;;;;;8.77;4.63;;;3.20;99.90;;;;;;5045211;28;20106;-67
2021/01/23 07:49:23;;;;;;;7.00;4.50;;;3.20;99.90;;;;;;5048040;28;20032;-67
2021/01/23 07:52:09;;;;;;;8.93;3.75;;;3.20;99.90;;;;;;5046023;28;20032;-68
2021/01/23 07:54:48;;;;;;;8.55;3.38;;;3.10;99.90;;;;;;5049000;28;20057;-68
2021/01/23 07:57:14;;;;;;;4.60;2.80;;;3.10;99.90;;;;;;5049047;28;20017;-69
2021/01/23 07:59:41;;;;;;;5.80;3.05;;;3.00;99.90;;;;;;5045412;28;20086;-68
2021/01/23 08:02:07;;;;;;;9.63;4.50;;;3.00;99.90;;;;;;5047162;28;20030;-69
2021/01/23 08:04:34;;;;;;;14.60;5.85;;;3.10;99.90;;;;;;5048395;28;20025;-68
2021/01/23 08:07:25;;;;;;;6.75;3.80;;;3.10;99.90;;;;;;5047529;28;20028;-68
2021/01/23 08:10:12;;;;;;;10.63;4.32;;;3.10;99.90;;;;;;5043351;28;20595;-67
2021/01/23 08:12:56;;;;;;;8.48;3.50;;;3.10;99.90;;;;;;5048566;28;20036;-67
2021/01/23 08:15:33;;;;;;;7.30;3.75;;;3.10;99.90;;;;;;5049496;28;20021;-67
2021/01/23 08:18:00;;;;;;;11.70;5.18;;;3.20;99.90;;;;;;5047947;28;20025;-69
2021/01/23 08:20:34;;;;;;;16.75;5.95;;;3.20;99.90;;;;;;5044668;28;20061;-67
2021/01/23 08:23:09;;;;;;;10.77;5.65;;;3.30;99.90;;;;;;5045667;28;20021;-67
2021/01/23 08:25:55;;;;;;;9.98;4.45;;;3.30;99.90;;;;;;5049678;28;20090;-69
2021/01/23 08:28:33;;;;;;;9.10;4.90;;;3.40;99.90;;;;;;5031454;28;20025;-69
2021/01/23 08:31:24;;;;;;;6.32;4.30;;;3.50;99.90;;;;;;5030234;28;20025;-67
2021/01/23 08:33:54;;;;;;;9.38;3.63;;;3.60;99.90;;;;;;5031033;28;20017;-68
2021/01/23 08:36:30;;;;;;;6.45;3.30;;;3.80;99.90;;;;;;5030627;28;20104;-67
2021/01/23 08:39:04;;;;;;;5.80;3.60;;;3.90;99.90;;;;;;5030862;28;20064;-67
2021/01/23 08:41:30;;;;;;;4.13;3.72;;;3.90;99.90;;;;;;5031144;28;20025;-68
2021/01/23 08:43:56;;;;;;;3.60;3.30;;;4.00;99.90;;;;;;5029853;28;20073;-68
2021/01/23 08:46:22;;;;;;;4.72;3.60;;;4.00;99.90;;;;;;5031047;28;20140;-68
2021/01/23 08:48:49;;;;;;;6.85;3.65;;;4.00;99.90;;;;;;5036120;28;20025;-68
2021/01/23 08:51:15;;;;;;;9.20;3.78;;;4.00;99.90;;;;;;5050335;28;20079;-68
2021/01/23 08:53:41;;;;;;;10.75;3.88;;;4.10;99.90;;;;;;5050361;28;20017;-68
2021/01/23 08:56:07;;;;;;;10.48;4.53;;;4.10;99.90;;;;;;5052465;28;20045;-68
2021/01/23 08:58:33;;;;;;;8.85;3.47;;;4.10;99.90;;;;;;5053817;28;20051;-68
2021/01/23 09:00:58;;;;;;;8.07;4.03;;;4.20;99.90;;;;;;5054437;28;20086;-68
2021/01/23 09:03:24;;;;;;;7.55;3.70;;;4.30;99.90;;;;;;5054040;28;20056;-68
2021/01/23 09:05:52;;;;;;;5.32;3.25;;;4.30;99.90;;;;;;5049765;28;20040;-68
2021/01/23 09:08:18;;;;;;;8.90;3.58;;;4.40;99.90;;;;;;5052316;28;20349;-70
2021/01/23 09:10:43;;;;;;;8.80;3.80;;;4.40;99.90;;;;;;5033479;28;20018;-68
2021/01/23 09:13:09;;;;;;;8.07;4.05;;;4.50;99.90;;;;;;5033812;28;20018;-69
2021/01/23 09:15:35;;;;;;;7.22;4.40;;;4.50;99.90;;;;;;5029946;28;20592;-68
2021/01/23 09:18:00;;;;;;;6.18;4.15;;;4.60;99.90;;;;;;5033299;28;20017;-68
2021/01/23 09:20:26;;;;;;;6.72;4.38;;;4.70;99.90;;;;;;5034232;28;20116;-67
2021/01/23 09:22:52;;;;;;;15.25;4.22;;;4.70;99.90;;;;;;5033876;28;20096;-67
2021/01/23 09:25:19;;;;;;;6.47;3.85;;;4.70;99.90;;;;;;5033229;28;20386;-67
2021/01/23 09:27:45;;;;;;;12.55;3.83;;;4.70;99.90;;;;;;5033922;28;20026;-67
2021/01/23 09:30:11;;;;;;;6.43;2.92;;;4.70;99.90;;;;;;5034058;28;20022;-68
2021/01/23 09:32:37;;;;;;;8.55;3.45;;;4.80;99.90;;;;;;5033531;28;20029;-68
2021/01/23 09:35:03;;;;;;;5.28;3.17;;;4.80;99.90;;;;;;5034040;28;20034;-68
2021/01/23 09:37:28;;;;;;;7.40;3.40;;;4.80;99.90;;;;;;5033752;28;20025;-67
2021/01/23 09:39:54;;;;;;;7.10;3.50;;;4.80;99.90;;;;;;5032721;28;20121;-68
2021/01/23 09:42:20;;;;;;;10.35;4.13;;;4.80;99.90;;;;;;5033570;28;20104;-69
2021/01/23 09:44:45;;;;;;;11.50;3.78;;;4.90;99.90;;;;;;5032910;28;20045;-69
2021/01/23 09:47:13;;;;;;;6.75;3.65;;;4.90;99.90;;;;;;5038761;28;20504;-70
2021/01/23 09:49:40;;;;;;;5.82;3.47;;;5.00;99.90;;;;;;5053055;28;20033;-69
2021/01/23 09:52:05;;;;;;;7.53;2.97;;;5.00;99.90;;;;;;5044756;28;20402;-69
2021/01/23 09:54:31;;;;;;;5.65;3.20;;;5.00;99.90;;;;;;5031819;28;20064;-69
2021/01/23 09:56:56;;;;;;;4.53;3.60;;;5.00;99.90;;;;;;5032426;28;20022;-69
2021/01/23 09:59:22;;;;;;;9.05;3.42;;;5.00;99.90;;;;;;5033199;28;20028;-69
2021/01/23 10:01:47;;;;;;;4.55;3.03;;;5.00;99.90;;;;;;5043732;28;20394;-68
2021/01/23 10:04:13;;;;;;;8.32;3.35;;;4.90;99.90;;;;;;5049927;28;20021;-69
2021/01/23 10:06:38;;;;;;;8.65;4.60;;;4.90;99.90;;;;;;5044312;28;20021;-68
2021/01/23 10:09:04;;;;;;;8.18;3.50;;;4.90;99.90;;;;;;5045805;28;20026;-68
2021/01/23 10:11:30;;;;;;;5.70;3.83;;;4.90;99.90;;;;;;5050527;28;20044;-68
2021/01/23 10:13:55;;;;;;;11.27;4.75;;;4.90;99.90;;;;;;5048565;28;20381;-68
2021/01/23 10:16:21;;;;;;;8.95;4.32;;;5.00;99.90;;;;;;5032050;28;20017;-69
2021/01/23 10:18:46;;;;;;;8.32;3.53;;;5.00;99.90;;;;;;5032483;28;20093;-69
2021/01/23 10:21:12;;;;;;;7.35;3.97;;;4.90;99.90;;;;;;5032244;28;20598;-68
2021/01/23 10:23:38;;;;;;;4.72;3.72;;;4.90;99.90;;;;;;5032601;28;20428;-68
2021/01/23 10:26:03;;;;;;;10.52;4.35;;;4.90;99.90;;;;;;5031868;28;20461;-68
2021/01/23 10:28:29;;;;;;;10.52;4.07;;;4.90;99.90;;;;;;5028145;28;20028;-68
2021/01/23 10:30:55;;;;;;;6.72;4.20;;;5.00;99.90;;;;;;5036148;28;20040;-68
2021/01/23 10:33:21;;;;;;;9.25;4.10;;;5.10;99.90;;;;;;5032552;28;20022;-68
2021/01/23 10:35:47;;;;;;;6.82;3.60;;;5.20;99.90;;;;;;5044948;28;20056;-69
2021/01/23 10:38:13;;;;;;;8.52;3.25;;;5.30;99.90;;;;;;5039296;28;20429;-69
2021/01/23 10:40:38;;;;;;;7.72;3.67;;;5.40;99.90;;;;;;5040985;28;20043;-69
2021/01/23 10:43:04;;;;;;;10.75;3.83;;;5.40;99.90;;;;;;5047689;28;20046;-69
2021/01/23 10:45:30;;;;;;;10.52;6.05;;;5.50;99.90;;;;;;5049135;28;20059;-68
2021/01/23 10:47:55;;;;;;;8.30;5.93;;;5.50;99.90;;;;;;5048495;28;20079;-68
2021/01/23 10:50:21;;;;;;;9.85;4.93;;;5.50;99.90;;;;;;5047559;28;20046;-68
2021/01/23 10:52:47;;;;;;;8.35;4.65;;;5.60;99.90;;;;;;5048549;28;20021;-69
2021/01/23 10:55:13;;;;;;;19.58;6.28;;;5.50;99.90;;;;;;5048076;28;20092;-69
2021/01/23 10:57:38;;;;;;;7.18;4.45;;;5.60;99.90;;;;;;5043046;28;20068;-69
2021/01/23 11:00:06;;;;;;;15.07;4.80;;;5.50;99.90;;;;;;5048598;28;20059;-69
2021/01/23 11:02:32;;;;;;;8.00;4.65;;;5.50;99.90;;;;;;5048826;28;20028;-68
2021/01/23 11:04:57;;;;;;;16.35;5.72;;;5.50;99.90;;;;;;5047345;28;20025;-68
2021/01/23 11:07:23;;;;;;;8.23;4.93;;;5.50;99.90;;;;;;5049263;28;20093;-69
2021/01/23 11:09:49;;;;;;;6.22;5.00;;;5.50;99.90;;;;;;5049969;28;20056;-69
2021/01/23 11:12:14;;;;;;;12.32;5.55;;;5.40;99.90;;;;;;5044130;28;20029;-68
2021/01/23 11:14:40;;;;;;;7.75;5.35;;;5.40;99.90;;;;;;5048189;28;20013;-68
2021/01/23 11:17:05;;;;;;;10.65;5.35;;;5.30;99.90;;;;;;5037817;28;20048;-68
2021/01/23 11:19:31;;;;;;;8.02;4.78;;;5.20;99.90;;;;;;5030904;28;20059;-68
2021/01/23 11:21:56;;;;;;;5.57;4.45;;;5.20;99.90;;;;;;5031313;28;20063;-68
2021/01/23 11:24:22;;;;;;;9.02;5.88;;;5.10;99.90;;;;;;5031798;28;20025;-68
2021/01/23 11:26:48;;;;;;;18.35;6.25;;;5.00;99.90;;;;;;5030334;28;20461;-68
2021/01/23 11:29:14;;;;;;;10.25;4.68;;;4.90;99.90;;;;;;5031752;28;20087;-68
2021/01/23 11:31:40;;;;;;;9.73;6.18;;;4.90;99.90;;;;;;5030946;28;20029;-68
2021/01/23 11:34:05;;;;;;;6.78;4.95;;;4.90;99.90;;;;;;5031237;28;20032;-68
2021/01/23 11:36:31;;;;;;;9.20;5.57;;;5.00;99.90;;;;;;5031389;28;20080;-68
2021/01/23 11:38:57;;;;;;;7.65;5.55;;;5.00;99.90;;;;;;5030007;28;20032;-69
2021/01/23 11:41:23;;;;;;;7.45;5.07;;;5.10;99.90;;;;;;5038104;28;20091;-68
2021/01/23 11:43:49;;;;;;;10.20;4.68;;;5.20;99.90;;;;;;5048532;28;20489;-68
2021/01/23 11:46:15;;;;;;;10.85;4.78;;;5.30;99.90;;;;;;5041074;28;20032;-68
2021/01/23 11:48:40;;;;;;;7.32;4.85;;;5.40;99.90;;;;;;5035648;28;20021;-70
2021/01/23 11:51:06;;;;;;;5.05;4.03;;;5.40;99.90;;;;;;5051150;28;20107;-69
2021/01/23 11:53:31;;;;;;;10.82;5.78;;;5.40;99.90;;;;;;5047490;28;20371;-69
2021/01/23 11:55:57;;;;;;;7.72;5.28;;;5.40;99.90;;;;;;5039418;28;20517;-69
2021/01/23 11:58:22;;;;;;;10.68;5.43;;;5.40;99.90;;;;;;5050985;28;20500;-69
2021/01/23 12:00:48;;;;;;;7.45;5.30;;;5.50;99.90;;;;;;5050303;28;20357;-69
2021/01/23 12:03:13;;;;;;;9.93;6.05;;;5.50;99.90;;;;;;5051091;28;20059;-70
2021/01/23 12:05:39;;;;;;;11.93;6.47;;;5.40;99.90;;;;;;5039470;28;20174;-68
2021/01/23 12:08:05;;;;;;;10.00;5.88;;;5.40;99.90;;;;;;5049860;28;20540;-69
2021/01/23 12:10:30;;;;;;;6.90;5.97;;;5.40;99.90;;;;;;5044269;28;20025;-69
2021/01/23 12:12:56;;;;;;;4.80;4.32;;;5.40;99.90;;;;;;5046318;28;20101;-69
2021/01/23 12:15:22;;;;;;;12.73;5.00;;;5.40;99.90;;;;;;5046725;28;20017;-70
2021/01/23 12:17:48;;;;;;;9.85;6.55;;;5.40;99.90;;;;;;5046548;28;20029;-69
2021/01/23 12:20:14;;;;;;;8.15;5.63;;;5.40;99.90;;;;;;5047961;28;20083;-70
2021/01/23 12:22:40;;;;;;;6.47;4.55;;;5.40;99.90;;;;;;5042968;28;20108;-69
2021/01/23 12:25:07;;;;;;;10.95;4.85;;;5.40;99.90;;;;;;5030274;28;20453;-69
2021/01/23 12:27:34;;;;;;;12.65;5.35;;;5.50;99.90;;;;;;5030658;28;20029;-69
2021/01/23 12:30:01;;;;;;;17.67;5.18;;;5.50;99.90;;;;;;5029945;28;20112;-69
2021/01/23 12:32:26;;;;;;;9.63;5.82;;;5.50;99.90;;;;;;5034796;28;20060;-69
2021/01/23 12:34:52;;;;;;;17.90;8.70;;;5.50;99.90;;;;;;5033838;28;20438;-69
2021/01/23 12:37:17;;;;;;;16.23;8.45;;;5.60;99.90;;;;;;5034686;28;20449;-69
2021/01/23 12:39:43;;;;;;;11.60;5.25;;;5.50;99.90;;;;;;5034157;28;20428;-69
2021/01/23 12:42:08;;;;;;;4.55;4.03;;;5.60;99.90;;;;;;5034314;28;20021;-69
2021/01/23 12:44:34;;;;;;;7.85;4.90;;;5.60;99.90;;;;;;5034547;28;20076;-69
2021/01/23 12:46:59;;;;;;;10.38;5.50;;;5.60;99.90;;;;;;5034298;28;20341;-69
2021/01/23 12:49:25;;;;;;;9.82;5.47;;;5.60;99.90;;;;;;5044688;28;20025;-69
2021/01/23 12:51:51;;;;;;;9.60;5.20;;;5.60;99.90;;;;;;5053906;28;20377;-69
2021/01/23 12:54:16;;;;;;;9.07;5.60;;;5.70;99.90;;;;;;5054508;28;20103;-70